Time;durP1;ratioP1;P1;durP2;ratioP2;P2;SDS_P1;SDS_P2;PMS_P1;PMS_P2;Temp;Humidity;BMP_temperature;BMP_pressure;BME280_temperature;BME280_humidity;BME280_pressure;Samples;Min_cycle;Max_cycle;Signal;HPM_P1;HPM_P2
2022/08/12 00:44:09;;;;;;;12.80;1.60;;;26.60;50.20;;;;;;4968295;28;20069;-89
2022/08/12 00:46:48;;;;;;;3.42;2.15;;;26.60;50.10;;;;;;4949895;28;20399;-88
2022/08/12 00:49:14;;;;;;;5.85;1.50;;;26.60;50.20;;;;;;4968900;28;20162;-89
2022/08/12 00:54:26;;;;;;;15.57;1.70;;;26.60;50.30;;;;;;4969408;28;20396;-89
2022/08/12 00:56:54;;;;;;;3.65;1.60;;;26.60;50.40;;;;;;4969207;28;20027;-89
2022/08/12 00:59:20;;;;;;;5.55;1.35;;;26.60;50.00;;;;;;4978330;28;20399;-90
2022/08/12 01:01:46;;;;;;;4.57;1.30;;;26.50;50.10;;;;;;4980244;28;20104;-88
2022/08/12 01:12:37;;;;;;;3.58;1.50;;;26.40;50.30;;;;;;4972274;28;20414;-89
2022/08/12 01:15:03;;;;;;;6.22;1.67;;;26.30;50.50;;;;;;4972036;28;20490;-88
2022/08/12 01:17:30;;;;;;;6.53;1.40;;;26.30;51.00;;;;;;4970771;28;20639;-88
2022/08/12 01:19:58;;;;;;;4.53;1.50;;;26.30;50.60;;;;;;4972277;28;20102;-89
2022/08/12 01:22:48;;;;;;;2.75;1.40;;;26.30;50.80;;;;;;4970516;28;20030;-89
2022/08/12 01:25:19;;;;;;;3.05;1.35;;;26.30;50.70;;;;;;4946819;28;20443;-91
2022/08/12 01:27:48;;;;;;;2.85;1.40;;;26.20;50.80;;;;;;4971237;28;20018;-89
2022/08/12 01:30:15;;;;;;;4.45;1.40;;;26.30;51.00;;;;;;4972068;28;20495;-89
2022/08/12 01:32:46;;;;;;;5.78;1.80;;;26.30;50.60;;;;;;4970466;28;20127;-89
2022/08/12 01:35:14;;;;;;;6.95;1.50;;;26.20;50.70;;;;;;4968749;28;20090;-89
2022/08/12 01:37:48;;;;;;;5.07;1.88;;;26.20;50.90;;;;;;4970481;28;20095;-89
2022/08/12 01:40:15;;;;;;;2.53;1.20;;;26.20;51.30;;;;;;4971108;28;20027;-89
2022/08/12 01:42:52;;;;;;;3.40;1.70;;;26.20;50.80;;;;;;4970912;28;20118;-88
2022/08/12 01:45:23;;;;;;;3.03;1.50;;;26.10;51.00;;;;;;4970806;28;20400;-88
2022/08/12 01:48:12;;;;;;;3.10;1.40;;;26.10;51.50;;;;;;4970742;28;20025;-89
2022/08/12 01:51:08;;;;;;;3.05;1.60;;;26.10;51.50;;;;;;4971204;28;20038;-88
2022/08/12 01:53:40;;;;;;;5.30;1.63;;;26.10;51.30;;;;;;4970592;28;20035;-89
2022/08/12 01:56:06;;;;;;;4.63;1.73;;;26.10;51.50;;;;;;4969944;28;20023;-93
2022/08/12 02:01:29;;;;;;;8.07;1.83;;;26.00;51.50;;;;;;4970734;28;20084;-89
2022/08/12 02:14:06;;;;;;;7.63;1.98;;;25.90;51.70;;;;;;4970821;28;20061;-88
2022/08/12 02:16:44;;;;;;;5.25;1.75;;;25.80;51.70;;;;;;4986044;28;20034;-89
2022/08/12 02:19:26;;;;;;;4.15;1.73;;;25.70;51.90;;;;;;4988076;28;20027;-89
2022/08/12 02:22:20;;;;;;;4.38;1.70;;;25.70;52.00;;;;;;4969572;28;20047;-89
2022/08/12 02:24:49;;;;;;;5.53;1.77;;;25.70;52.40;;;;;;4944884;28;20031;-88
2022/08/12 02:27:18;;;;;;;4.70;1.80;;;25.70;52.30;;;;;;4970891;28;20022;-89
2022/08/12 02:29:44;;;;;;;5.57;1.70;;;25.60;52.80;;;;;;4970572;28;20033;-89
2022/08/12 02:32:10;;;;;;;5.65;1.73;;;25.60;52.50;;;;;;4970998;28;20030;-89
2022/08/12 02:34:37;;;;;;;7.30;1.50;;;25.60;52.70;;;;;;4970719;28;20054;-88
2022/08/12 02:37:03;;;;;;;6.53;1.67;;;25.60;52.90;;;;;;4970878;28;20031;-89
2022/08/12 02:39:32;;;;;;;6.53;1.58;;;25.60;52.90;;;;;;4971025;28;20027;-89
2022/08/12 02:42:02;;;;;;;4.75;1.70;;;25.50;53.00;;;;;;4971465;28;20011;-89
2022/08/12 02:44:34;;;;;;;7.03;1.70;;;25.40;52.90;;;;;;4970691;28;20030;-90
2022/08/12 02:47:05;;;;;;;4.65;1.67;;;25.40;53.30;;;;;;4970486;28;20035;-89
2022/08/12 02:49:38;;;;;;;7.68;2.08;;;25.30;53.40;;;;;;4953044;28;20019;-88
2022/08/12 02:52:06;;;;;;;5.55;1.98;;;25.30;53.30;;;;;;4970506;28;20380;-94
2022/08/12 02:54:33;;;;;;;9.45;1.85;;;25.20;53.60;;;;;;4970417;28;20019;-89
2022/08/12 02:56:59;;;;;;;5.07;1.45;;;25.10;53.60;;;;;;4970530;28;20023;-88
2022/08/12 02:59:27;;;;;;;6.10;1.73;;;25.10;53.50;;;;;;4953216;28;20031;-88
2022/08/12 03:01:55;;;;;;;4.78;1.90;;;25.10;53.70;;;;;;4970280;28;20018;-89
2022/08/12 03:04:32;;;;;;;3.60;1.60;;;25.10;53.90;;;;;;4968529;28;20030;-89
2022/08/12 03:07:13;;;;;;;3.75;1.80;;;25.10;53.80;;;;;;4968902;28;20018;-89
2022/08/12 03:09:51;;;;;;;4.82;1.70;;;25.00;53.60;;;;;;4968874;28;20054;-90
2022/08/12 03:12:19;;;;;;;5.28;1.75;;;25.00;54.20;;;;;;4969563;28;20035;-89
2022/08/12 03:14:46;;;;;;;2.28;1.70;;;24.90;54.00;;;;;;4952493;28;20054;-89
2022/08/12 03:17:23;;;;;;;5.30;1.70;;;24.90;54.30;;;;;;4976380;28;20025;-89
2022/08/12 03:19:53;;;;;;;5.30;1.83;;;24.90;54.20;;;;;;4971702;28;20026;-88
2022/08/12 03:22:22;;;;;;;11.23;2.00;;;24.80;54.20;;;;;;4969935;28;20117;-89
2022/08/12 03:24:49;;;;;;;6.30;1.92;;;24.80;54.30;;;;;;4969748;28;20492;-89
2022/08/12 03:27:16;;;;;;;2.70;1.60;;;24.80;54.40;;;;;;4946141;28;20113;-89
2022/08/12 03:29:48;;;;;;;4.43;1.60;;;24.70;54.20;;;;;;4968846;28;20270;-89
2022/08/12 03:32:15;;;;;;;3.60;1.80;;;24.70;54.20;;;;;;4969538;28;20034;-88
2022/08/12 03:34:41;;;;;;;6.20;1.63;;;24.70;54.40;;;;;;4952455;28;20396;-89
2022/08/12 03:37:09;;;;;;;7.20;1.77;;;24.60;54.40;;;;;;4969927;28;20021;-88
2022/08/12 03:42:05;;;;;;;2.53;1.60;;;24.60;54.40;;;;;;4969168;28;20042;-89
2022/08/12 04:01:26;;;;;;;6.65;2.13;;;24.50;54.90;;;;;;4969258;28;20166;-88
2022/08/12 04:03:52;;;;;;;8.75;1.77;;;24.50;54.90;;;;;;4969424;28;20027;-89
2022/08/12 04:06:27;;;;;;;11.85;2.03;;;24.40;55.10;;;;;;4969425;28;20038;-88
2022/08/12 04:08:57;;;;;;;3.30;1.83;;;24.40;55.10;;;;;;4952029;28;20114;-89
2022/08/12 04:14:18;;;;;;;3.70;1.90;;;24.40;55.10;;;;;;4968752;28;20423;-89
2022/08/12 04:16:44;;;;;;;;;;;24.40;55.40;;;;;;4942266;28;20019;-89
2022/08/12 04:19:13;;;;;;;3.67;1.90;;;24.40;54.80;;;;;;4967948;28;19913;-89
2022/08/12 04:21:39;;;;;;;5.10;1.80;;;24.30;54.80;;;;;;4969253;28;20078;-89
2022/08/12 04:24:05;;;;;;;3.47;1.60;;;24.30;55.00;;;;;;4969322;28;20188;-89
2022/08/12 04:26:34;;;;;;;4.00;2.05;;;24.30;54.80;;;;;;4969447;28;20015;-89
2022/08/12 04:29:01;;;;;;;4.15;1.80;;;24.30;54.90;;;;;;4967543;28;20022;-88
2022/08/12 04:31:35;;;;;;;4.30;1.80;;;24.30;55.20;;;;;;4969173;28;20136;-88
2022/08/12 04:34:02;;;;;;;6.68;2.13;;;24.30;55.20;;;;;;4967241;28;20065;-89
2022/08/12 04:36:29;;;;;;;5.07;1.75;;;24.30;55.50;;;;;;4968970;28;20049;-89
2022/08/12 04:38:56;;;;;;;3.42;1.85;;;24.20;54.90;;;;;;4951535;28;20121;-88
2022/08/12 04:41:24;;;;;;;3.25;1.83;;;24.20;55.30;;;;;;4969052;28;20035;-89
2022/08/12 04:43:50;;;;;;;7.25;1.90;;;24.10;55.50;;;;;;4952969;28;20050;-89
2022/08/12 04:46:16;;;;;;;8.27;2.03;;;24.10;55.40;;;;;;4972510;28;20027;-90
2022/08/12 04:48:42;;;;;;;4.97;1.80;;;24.10;55.50;;;;;;4972984;28;20035;-88
2022/08/12 04:51:09;;;;;;;4.93;2.15;;;24.20;55.20;;;;;;4973045;28;20019;-89
2022/08/12 04:53:34;;;;;;;4.90;1.90;;;24.20;55.60;;;;;;4972643;28;20065;-89
2022/08/12 04:56:00;;;;;;;4.75;1.60;;;24.20;55.30;;;;;;4955258;28;20059;-88
2022/08/12 04:58:29;;;;;;;4.82;1.85;;;24.20;55.10;;;;;;4972501;28;20616;-88
2022/08/12 05:00:55;;;;;;;3.67;1.80;;;24.10;55.70;;;;;;4971301;28;20022;-88
2022/08/12 05:03:21;;;;;;;7.22;1.92;;;24.10;55.40;;;;;;4955123;28;20461;-88
2022/08/12 05:05:46;;;;;;;2.40;1.60;;;24.00;55.40;;;;;;4983079;28;20106;-89
2022/08/12 05:08:17;;;;;;;6.00;1.73;;;24.00;55.40;;;;;;4982327;28;20116;-89
2022/08/12 05:10:47;;;;;;;4.82;1.77;;;24.10;55.60;;;;;;4973156;28;20031;-89
2022/08/12 05:13:18;;;;;;;7.10;1.98;;;24.10;55.50;;;;;;4972003;28;20037;-89
2022/08/12 05:15:45;;;;;;;5.50;1.60;;;24.10;55.30;;;;;;4932589;29;20123;-88
2022/08/12 05:18:12;;;;;;;5.35;1.88;;;24.10;55.60;;;;;;4932278;29;20265;-88
2022/08/12 05:20:38;;;;;;;4.75;1.80;;;24.10;55.80;;;;;;4944257;29;20236;-87
2022/08/12 05:23:09;;;;;;;3.25;1.75;;;24.10;55.70;;;;;;4944537;29;20339;-87
2022/08/12 05:25:35;;;;;;;5.32;2.00;;;24.10;55.70;;;;;;4944909;29;20023;-88
2022/08/12 05:28:02;;;;;;;5.15;2.10;;;24.10;55.80;;;;;;4944540;29;20074;-87
2022/08/12 05:30:29;;;;;;;4.63;1.70;;;24.00;55.80;;;;;;4940590;29;20042;-91
2022/08/12 07:07:08;;;;;;;14.45;2.47;;;25.60;55.40;;;;;;5135069;23;20378;-88
2022/08/12 07:09:34;;;;;;;26.60;3.15;;;25.70;55.80;;;;;;4958507;28;20031;-88
2022/08/12 07:12:00;;;;;;;5.00;1.80;;;25.90;56.30;;;;;;4972381;28;20046;-89
2022/08/12 07:14:26;;;;;;;7.47;1.90;;;26.00;54.40;;;;;;4977585;28;20066;-90
2022/08/12 07:16:51;;;;;;;16.77;2.60;;;26.10;55.10;;;;;;4978181;28;20022;-91
2022/08/12 07:19:18;;;;;;;10.40;2.30;;;26.20;56.10;;;;;;4980496;28;20030;-92
2022/08/12 07:21:45;;;;;;;184.13;9.95;;;26.20;54.40;;;;;;4961677;28;20018;-88
2022/08/12 07:24:11;;;;;;;26.45;3.03;;;26.30;56.60;;;;;;4978723;28;20042;-88
2022/08/12 07:26:40;;;;;;;19.77;2.42;;;26.40;55.80;;;;;;4980453;28;20041;-87
2022/08/12 07:29:08;;;;;;;9.50;2.22;;;26.50;55.70;;;;;;4975435;28;20010;-88
2022/08/12 07:31:35;;;;;;;16.25;2.00;;;26.60;55.10;;;;;;4973931;28;20018;-89
2022/08/12 07:34:01;;;;;;;9.10;2.30;;;26.70;54.40;;;;;;4977691;28;20050;-86
2022/08/12 07:36:27;;;;;;;4.00;1.70;;;26.70;54.10;;;;;;4978231;28;20102;-91
2022/08/12 07:38:52;;;;;;;9.45;2.10;;;26.80;54.30;;;;;;4979401;28;20026;-88
2022/08/12 07:41:25;;;;;;;12.13;2.10;;;26.90;54.30;;;;;;4974039;28;20030;-87
2022/08/12 07:43:57;;;;;;;4.40;1.73;;;27.00;54.00;;;;;;4958928;28;20507;-87
2022/08/12 07:46:33;;;;;;;11.20;2.20;;;27.10;54.30;;;;;;4964134;28;20032;-92
2022/08/12 07:49:01;;;;;;;8.45;2.03;;;27.10;54.90;;;;;;4975125;28;20031;-89
2022/08/12 07:51:27;;;;;;;3.75;1.65;;;27.20;53.30;;;;;;4980316;28;20383;-90
2022/08/12 07:53:56;;;;;;;10.75;2.00;;;27.30;53.60;;;;;;4978304;28;20038;-94
2022/08/12 07:56:26;;;;;;;415.60;49.25;;;27.40;53.70;;;;;;4977831;28;20027;-93
2022/08/12 07:58:52;;;;;;;13.52;2.47;;;27.50;53.60;;;;;;4977401;28;20027;-93
2022/08/12 08:01:20;;;;;;;8.32;2.05;;;27.60;53.30;;;;;;4958440;28;20376;-89
2022/08/12 08:06:41;;;;;;;11.90;1.92;;;27.80;52.60;;;;;;4981223;28;20049;-91
2022/08/12 08:09:08;;;;;;;8.38;1.95;;;27.80;52.90;;;;;;4972482;28;20219;-88
2022/08/12 08:14:19;;;;;;;6.63;1.65;;;28.00;53.20;;;;;;4980669;28;20162;-87
2022/08/12 08:16:47;;;;;;;5.50;1.67;;;28.10;53.20;;;;;;4980874;28;20035;-92
2022/08/12 08:19:22;;;;;;;4.40;2.13;;;28.20;52.00;;;;;;4984622;28;20026;-90
2022/08/12 08:21:49;;;;;;;22.02;2.78;;;28.30;52.10;;;;;;4973410;28;20263;-88
2022/08/12 08:24:15;;;;;;;4.90;1.73;;;28.50;52.20;;;;;;4990057;28;20198;-90
2022/08/12 08:26:41;;;;;;;9.93;2.03;;;28.60;51.90;;;;;;4984193;28;20050;-88
2022/08/12 08:29:07;;;;;;;4.15;1.83;;;28.70;52.30;;;;;;4966734;28;20255;-89
2022/08/12 08:31:34;;;;;;;11.07;1.85;;;28.80;51.90;;;;;;4982800;28;20110;-89
2022/08/12 08:34:00;;;;;;;7.50;1.92;;;28.90;51.60;;;;;;4984293;28;20282;-93
2022/08/12 08:36:27;;;;;;;11.65;1.90;;;29.00;52.20;;;;;;4984550;28;20051;-89
2022/08/12 08:38:53;;;;;;;11.93;2.17;;;29.10;51.40;;;;;;4984270;28;20053;-89
2022/08/12 08:44:03;;;;;;;9.50;1.80;;;29.30;51.70;;;;;;4983650;28;20492;-88
2022/08/12 08:46:31;;;;;;;4.80;1.73;;;29.40;51.70;;;;;;4984357;28;20299;-88
2022/08/12 08:49:00;;;;;;;9.25;1.88;;;29.50;51.30;;;;;;4965742;28;20026;-88
2022/08/12 08:51:26;;;;;;;7.68;2.03;;;29.60;50.90;;;;;;4984543;28;20018;-85
2022/08/12 08:53:52;;;;;;;6.38;2.05;;;29.80;50.40;;;;;;4983914;28;20049;-86
2022/08/12 08:56:18;;;;;;;7.63;1.95;;;29.90;50.40;;;;;;4982928;28;20093;-90
2022/08/12 08:58:44;;;;;;;16.98;1.98;;;30.00;50.70;;;;;;4980008;28;20030;-90
2022/08/12 09:01:16;;;;;;;10.32;1.92;;;30.10;50.30;;;;;;4978327;28;20117;-88
2022/08/12 09:03:42;;;;;;;8.45;1.90;;;30.20;50.10;;;;;;4970232;28;20173;-88
2022/08/12 09:06:07;;;;;;;11.38;1.67;;;30.40;50.30;;;;;;4958063;29;20063;-90
2022/08/12 09:08:33;;;;;;;6.85;1.55;;;30.40;49.90;;;;;;4959932;29;20383;-91
2022/08/12 09:13:26;;;;;;;13.27;1.90;;;30.50;49.40;;;;;;4964091;29;20223;-90
2022/08/12 09:13:44;;;;;;;7.38;1.55;;;30.60;49.10;;;;;;4964000;28;20039;-90
2022/08/12 09:16:10;;;;;;;6.13;1.75;;;30.80;48.60;;;;;;4963351;29;20042;-91
2022/08/12 09:18:36;;;;;;;5.70;1.80;;;30.90;49.40;;;;;;4957808;29;20121;-90
2022/08/12 09:21:02;;;;;;;2.20;1.48;;;31.00;49.20;;;;;;4952101;29;20027;-89
2022/08/12 09:23:28;;;;;;;6.43;1.65;;;31.10;49.20;;;;;;4951127;29;20050;-90
2022/08/12 09:25:54;;;;;;;6.57;1.92;;;31.20;49.20;;;;;;4961226;28;20054;-89
2022/08/12 09:28:27;;;;;;;6.10;1.90;;;31.30;48.30;;;;;;4953331;28;20042;-89
2022/08/12 09:30:57;;;;;;;6.77;1.87;;;31.40;47.70;;;;;;4952729;28;20061;-93
2022/08/12 09:33:27;;;;;;;7.57;1.63;;;31.60;48.00;;;;;;4953056;28;20150;-89
2022/08/12 09:35:54;;;;;;;8.25;1.80;;;31.60;47.90;;;;;;4957201;28;20034;-89
2022/08/12 09:38:19;;;;;;;10.20;1.95;;;31.70;48.10;;;;;;4953040;29;20058;-89
2022/08/12 09:40:46;;;;;;;11.30;1.80;;;31.80;48.00;;;;;;4965836;28;20047;-88
2022/08/12 09:45:59;;;;;;;16.50;2.05;;;32.00;47.20;;;;;;4952956;29;20133;-88
2022/08/12 09:48:25;;;;;;;5.15;2.53;;;32.00;47.60;;;;;;4952693;29;20524;-88
2022/08/12 09:50:51;;;;;;;10.88;1.88;;;32.20;46.90;;;;;;4951597;29;20082;-91
2022/08/12 09:53:23;;;;;;;9.73;2.22;;;32.30;46.70;;;;;;4950975;29;20075;-88
2022/08/12 09:55:54;;;;;;;3.85;1.30;;;32.40;47.10;;;;;;4951869;29;20026;-89
2022/08/12 09:58:28;;;;;;;6.97;1.50;;;32.50;47.10;;;;;;4952915;29;20034;-90
2022/08/12 10:00:56;;;;;;;23.33;1.88;;;32.60;47.20;;;;;;4963111;29;20318;-93
2022/08/12 10:03:26;;;;;;;10.57;1.90;;;32.70;46.90;;;;;;4964132;29;20064;-88
2022/08/12 10:05:53;;;;;;;7.47;1.70;;;32.80;46.20;;;;;;4968909;28;20046;-89
2022/08/12 10:08:20;;;;;;;11.57;1.75;;;33.00;45.70;;;;;;4965715;28;20066;-92
2022/08/12 10:13:43;;;;;;;7.43;1.88;;;33.10;46.40;;;;;;4980719;28;20553;-89
2022/08/12 10:16:21;;;;;;;5.22;1.80;;;33.20;45.90;;;;;;4980647;28;20081;-89
2022/08/12 10:19:01;;;;;;;4.88;1.20;;;33.30;45.70;;;;;;4981356;28;20338;-90
2022/08/12 10:21:37;;;;;;;8.15;1.70;;;33.40;45.50;;;;;;4983033;28;20023;-93
2022/08/12 10:24:08;;;;;;;12.77;1.80;;;33.40;46.10;;;;;;4982208;28;20034;-89
2022/08/12 10:29:35;;;;;;;5.93;1.67;;;33.60;45.80;;;;;;4992126;28;20030;-90
2022/08/12 10:32:02;;;;;;;9.30;1.60;;;33.80;45.20;;;;;;4989489;28;20268;-90
2022/08/12 10:34:28;;;;;;;4.93;1.63;;;33.80;44.80;;;;;;4982115;28;20038;-90
2022/08/12 10:37:00;;;;;;;4.47;1.77;;;33.90;45.50;;;;;;4981673;28;20026;-88
2022/08/12 10:39:35;;;;;;;5.40;1.50;;;33.90;44.60;;;;;;4981007;28;20023;-88
2022/08/12 10:44:49;;;;;;;6.07;1.40;;;34.10;44.90;;;;;;4981287;28;20258;-88
2022/08/12 10:47:15;;;;;;;10.85;1.60;;;34.20;44.90;;;;;;4977660;28;20137;-88
2022/08/12 10:49:43;;;;;;;5.78;1.67;;;34.20;44.40;;;;;;4971565;28;20527;-87
2022/08/12 10:52:09;;;;;;;4.32;1.50;;;34.30;44.60;;;;;;4971925;28;20054;-88
2022/08/12 10:54:35;;;;;;;4.65;1.30;;;34.40;44.20;;;;;;4954031;28;20069;-90
2022/08/12 10:57:01;;;;;;;6.63;1.40;;;34.50;44.30;;;;;;4971177;28;20023;-90
2022/08/12 10:59:30;;;;;;;9.55;1.80;;;34.60;44.40;;;;;;4971607;28;20034;-90
2022/08/12 11:01:57;;;;;;;5.47;1.23;;;34.80;43.90;;;;;;4973124;28;20031;-89
2022/08/12 11:04:24;;;;;;;4.88;1.52;;;34.80;44.10;;;;;;4969544;28;20033;-89
2022/08/12 11:06:52;;;;;;;5.40;1.40;;;34.80;44.30;;;;;;4972007;28;20530;-89
2022/08/12 11:09:18;;;;;;;10.25;1.55;;;34.90;43.90;;;;;;4970189;28;20023;-90
2022/08/12 11:11:47;;;;;;;4.82;1.20;;;35.10;44.00;;;;;;4956561;28;20027;-89
2022/08/12 11:14:18;;;;;;;5.40;1.63;;;35.30;43.10;;;;;;4970447;28;20029;-89
2022/08/12 11:16:44;;;;;;;5.18;1.20;;;35.30;43.40;;;;;;4969874;28;20282;-95
2022/08/12 11:19:11;;;;;;;7.85;1.40;;;35.30;43.20;;;;;;4974642;28;20033;-90
2022/08/12 11:21:37;;;;;;;7.10;1.83;;;35.30;43.80;;;;;;4972375;28;20105;-90
2022/08/12 11:24:04;;;;;;;5.65;1.38;;;35.50;44.20;;;;;;4953944;28;20294;-90
2022/08/12 11:26:29;;;;;;;7.63;1.60;;;35.60;43.20;;;;;;4953655;28;20027;-87
2022/08/12 11:28:55;;;;;;;3.75;1.30;;;35.70;43.30;;;;;;4969874;28;20034;-85
2022/08/12 11:31:21;;;;;;;2.58;1.08;;;35.80;43.00;;;;;;4970119;28;20057;-85
2022/08/12 11:33:48;;;;;;;2.95;1.40;;;35.80;43.20;;;;;;4968619;28;20041;-87
2022/08/12 11:36:14;;;;;;;5.40;1.27;;;36.00;42.70;;;;;;4969804;28;20017;-86
2022/08/12 11:38:39;;;;;;;3.80;1.17;;;36.10;42.50;;;;;;4969953;28;20031;-85
2022/08/12 11:41:05;;;;;;;2.95;1.40;;;36.20;43.10;;;;;;4969797;28;20439;-85
2022/08/12 11:43:32;;;;;;;4.07;1.13;;;36.40;42.40;;;;;;4969757;28;20483;-86
2022/08/12 11:45:58;;;;;;;8.32;1.35;;;36.50;42.30;;;;;;4969593;28;20014;-84
2022/08/12 11:48:24;;;;;;;10.98;1.20;;;36.60;42.50;;;;;;4969705;28;20026;-87
2022/08/12 11:50:50;;;;;;;5.35;1.50;;;36.70;41.80;;;;;;4970248;28;20110;-86
2022/08/12 11:53:16;;;;;;;2.65;1.20;;;36.60;42.10;;;;;;4951510;28;20062;-85
2022/08/12 11:55:41;;;;;;;6.32;1.30;;;36.70;42.00;;;;;;4969872;28;20451;-87
2022/08/12 11:58:07;;;;;;;6.35;1.50;;;36.80;42.00;;;;;;4969918;28;20022;-86
2022/08/12 12:00:33;;;;;;;4.05;1.30;;;36.90;42.20;;;;;;4969619;28;20500;-86
2022/08/12 12:02:59;;;;;;;4.50;1.30;;;36.90;41.00;;;;;;4969415;28;20514;-87
2022/08/12 12:05:24;;;;;;;4.13;1.17;;;36.80;42.00;;;;;;4969331;28;20030;-88
2022/08/12 12:07:50;;;;;;;2.83;1.10;;;36.90;41.80;;;;;;4952040;28;20423;-87
2022/08/12 12:10:18;;;;;;;1.60;1.00;;;37.10;41.50;;;;;;4969732;28;20532;-86
2022/08/12 12:12:45;;;;;;;2.33;1.13;;;37.20;41.80;;;;;;4969396;28;20038;-89
2022/08/12 12:15:11;;;;;;;5.55;1.45;;;37.20;40.80;;;;;;4969390;28;20022;-87
2022/08/12 12:17:38;;;;;;;4.47;1.20;;;37.40;41.70;;;;;;4952339;28;20384;-86
2022/08/12 12:20:09;;;;;;;2.53;1.13;;;37.60;41.40;;;;;;4968897;28;20030;-86
2022/08/12 12:22:36;;;;;;;5.80;1.42;;;37.90;42.00;;;;;;4967465;28;20027;-86
2022/08/12 12:25:03;;;;;;;3.13;1.20;;;38.00;41.20;;;;;;4969257;28;20022;-86
2022/08/12 12:27:42;;;;;;;4.22;1.30;;;38.20;41.50;;;;;;4969431;28;20069;-85
2022/08/12 12:30:08;;;;;;;6.00;1.30;;;38.30;40.20;;;;;;4967436;28;20055;-86
2022/08/12 12:32:34;;;;;;;5.13;1.40;;;38.30;40.80;;;;;;4969013;28;20038;-86
2022/08/12 12:34:59;;;;;;;2.50;1.27;;;38.40;40.20;;;;;;4951455;28;20034;-86
2022/08/12 12:37:25;;;;;;;4.50;1.30;;;38.40;39.90;;;;;;4969293;28;20030;-86
2022/08/12 12:39:50;;;;;;;5.07;1.20;;;38.50;40.90;;;;;;4951101;28;20027;-85
2022/08/12 12:42:16;;;;;;;1.55;1.15;;;38.60;39.90;;;;;;4968846;28;20514;-86
2022/08/12 12:44:42;;;;;;;4.25;1.20;;;38.70;40.40;;;;;;4968696;28;20023;-86
2022/08/12 12:47:07;;;;;;;5.82;1.40;;;38.80;40.10;;;;;;4969140;28;20023;-90
2022/08/12 12:49:33;;;;;;;4.88;1.15;;;38.90;40.70;;;;;;4970253;28;20423;-92
2022/08/12 12:51:59;;;;;;;4.22;1.20;;;38.90;40.10;;;;;;4972532;28;20365;-89
2022/08/12 12:54:24;;;;;;;4.93;1.27;;;38.90;39.60;;;;;;4972013;28;20031;-91
2022/08/12 12:56:51;;;;;;;3.05;1.30;;;38.90;39.70;;;;;;4969561;28;20574;-93
2022/08/12 12:59:22;;;;;;;6.85;1.40;;;39.10;40.30;;;;;;4968250;28;20027;-93
2022/08/12 13:02:06;;;;;;;3.72;1.50;;;39.30;40.60;;;;;;4967166;28;20162;-93
2022/08/12 13:04:33;;;;;;;5.85;1.30;;;39.60;39.60;;;;;;4951918;28;20106;-92
2022/08/12 13:06:58;;;;;;;7.28;1.27;;;39.90;40.00;;;;;;4979818;28;20090;-91
2022/08/12 13:09:24;;;;;;;3.28;1.70;;;40.10;39.50;;;;;;4991679;28;20026;-92
2022/08/12 13:11:49;;;;;;;7.35;1.55;;;40.10;40.10;;;;;;4984024;28;20184;-92
2022/08/12 13:14:16;;;;;;;5.90;1.23;;;40.30;39.60;;;;;;4972599;28;20098;-92
2022/08/12 13:16:42;;;;;;;7.18;1.40;;;40.30;39.10;;;;;;4972532;28;20016;-92
2022/08/12 13:19:08;;;;;;;5.63;1.70;;;40.20;39.10;;;;;;4954843;28;20078;-93
2022/08/12 13:21:34;;;;;;;9.95;1.73;;;40.20;39.50;;;;;;4973494;28;20002;-92
2022/08/12 13:24:02;;;;;;;2.97;1.35;;;40.00;40.00;;;;;;4956558;28;20498;-91
2022/08/12 13:26:32;;;;;;;7.53;1.38;;;40.20;40.10;;;;;;4971218;28;20023;-93
2022/08/12 13:28:59;;;;;;;7.90;1.80;;;40.70;40.00;;;;;;4971385;28;20027;-93
2022/08/12 13:31:24;;;;;;;5.22;1.52;;;41.10;39.40;;;;;;4955544;28;20034;-92
2022/08/12 13:33:50;;;;;;;4.05;1.33;;;41.40;39.30;;;;;;4972973;28;20035;-93
2022/08/12 13:36:19;;;;;;;7.25;1.25;;;41.40;38.90;;;;;;4972972;28;20399;-93
2022/08/12 13:38:50;;;;;;;6.07;1.45;;;41.60;39.50;;;;;;4972738;28;20022;-92
2022/08/12 13:41:32;;;;;;;4.80;1.40;;;41.90;38.40;;;;;;4973301;28;20369;-93
2022/08/12 13:44:02;;;;;;;4.10;1.45;;;42.10;39.20;;;;;;4971114;28;20019;-93
2022/08/12 13:46:31;;;;;;;4.53;1.70;;;42.50;38.50;;;;;;4955172;28;20150;-92
2022/08/12 13:48:57;;;;;;;5.65;1.73;;;42.90;38.10;;;;;;4972897;28;20027;-94
2022/08/12 13:51:24;;;;;;;6.22;1.58;;;43.40;38.30;;;;;;4972498;28;20054;-91
2022/08/12 13:53:50;;;;;;;5.07;1.80;;;43.90;38.30;;;;;;4956674;28;20042;-92
2022/08/12 13:56:17;;;;;;;5.75;1.90;;;44.50;38.00;;;;;;4974476;28;20042;-94
2022/08/12 13:58:48;;;;;;;8.20;2.00;;;45.00;37.50;;;;;;4972823;28;20046;-95
2022/08/12 14:01:14;;;;;;;5.15;1.88;;;45.60;38.10;;;;;;4955246;28;20585;-94
2022/08/12 14:03:41;;;;;;;9.35;2.30;;;46.20;37.50;;;;;;4969355;28;20002;-93
2022/08/12 14:06:07;;;;;;;4.53;1.30;;;46.70;36.80;;;;;;4990183;28;20046;-92
2022/08/12 14:08:33;;;;;;;3.83;1.70;;;47.20;36.80;;;;;;4980618;28;20358;-92
2022/08/12 14:10:59;;;;;;;4.97;1.60;;;47.80;36.80;;;;;;4971535;28;20081;-91
2022/08/12 14:13:28;;;;;;;6.03;1.40;;;48.90;36.50;;;;;;4971203;28;20039;-89
2022/08/12 14:15:59;;;;;;;5.60;1.38;;;50.10;36.40;;;;;;4953960;28;20023;-93
2022/08/12 14:18:31;;;;;;;2.28;1.38;;;51.30;36.30;;;;;;4972362;28;20026;-95
2022/08/12 14:21:08;;;;;;;7.65;1.63;;;52.90;36.00;;;;;;4955647;28;20035;-94
2022/08/12 14:23:36;;;;;;;2.55;1.50;;;54.20;36.00;;;;;;4968731;28;20426;-88
2022/08/12 14:26:05;;;;;;;3.45;1.70;;;55.10;35.20;;;;;;4969602;28;20507;-90
2022/08/12 14:30:08;;;;;;;33.00;3.65;;;56.90;34.80;;;;;;5043636;27;1559030;-94
2022/08/12 14:32:39;;;;;;;4.90;2.05;;;57.60;35.60;;;;;;5085929;28;20024;-95
2022/08/12 14:35:06;;;;;;;3.92;1.60;;;58.30;34.90;;;;;;5084721;28;20013;-95
2022/08/12 14:40:15;;;;;;;4.40;1.70;;;58.10;34.30;;;;;;5055169;23;20064;-90
2022/08/12 14:42:41;;;;;;;6.53;2.03;;;58.00;34.10;;;;;;5025897;28;20395;-89
2022/08/12 14:45:07;;;;;;;7.38;1.90;;;57.60;33.70;;;;;;5026355;28;20401;-90
2022/08/12 14:47:33;;;;;;;2.60;1.85;;;56.80;34.10;;;;;;5025771;28;20030;-88
2022/08/12 14:49:59;;;;;;;48.58;3.85;;;57.00;34.30;;;;;;5026480;28;20099;-89
2022/08/12 14:52:24;;;;;;;9.52;2.15;;;57.80;34.20;;;;;;5025949;28;20022;-89
2022/08/12 14:54:50;;;;;;;5.25;2.00;;;58.50;33.80;;;;;;5025722;28;20401;-95
2022/08/12 14:57:16;;;;;;;6.32;2.22;;;58.60;33.70;;;;;;5025825;28;20083;-94
2022/08/12 15:02:28;;;;;;;3.13;2.10;;;58.40;33.70;;;;;;5024667;28;20025;-90
2022/08/12 15:05:01;;;;;;;6.47;2.50;;;58.40;33.80;;;;;;5005723;28;20030;-93
2022/08/12 15:08:30;;;;;;;9.10;2.80;;;57.90;34.10;;;;;;5027743;28;20041;-94
2022/08/12 15:10:56;;;;;;;18.50;3.67;;;58.30;34.10;;;;;;4946780;28;20047;-91
2022/08/12 15:13:23;;;;;;;4.57;2.40;;;58.30;34.00;;;;;;5025939;28;20093;-93
2022/08/12 15:15:54;;;;;;;8.15;2.50;;;58.00;33.40;;;;;;5024200;28;20025;-93
2022/08/12 15:18:20;;;;;;;5.78;3.00;;;58.40;33.70;;;;;;5025738;28;20021;-90
2022/08/12 15:20:46;;;;;;;5.10;2.47;;;58.70;33.70;;;;;;5022977;28;20033;-91
2022/08/12 15:23:15;;;;;;;6.85;2.58;;;59.20;33.80;;;;;;5005231;28;20029;-91
2022/08/12 15:25:41;;;;;;;2.47;2.28;;;59.10;33.80;;;;;;5035815;28;20075;-92
2022/08/12 15:28:08;;;;;;;4.15;2.38;;;58.60;33.60;;;;;;5018786;28;20093;-90
2022/08/12 15:30:41;;;;;;;4.57;2.45;;;58.10;33.60;;;;;;5015996;28;20032;-96
2022/08/12 15:33:08;;;;;;;7.65;2.42;;;57.80;33.60;;;;;;5026059;28;20034;-90
2022/08/12 15:35:35;;;;;;;5.80;2.05;;;58.60;33.80;;;;;;5023042;28;20021;-90
2022/08/12 15:38:09;;;;;;;7.65;2.00;;;58.90;33.90;;;;;;5029169;28;20034;-92
2022/08/12 15:40:41;;;;;;;7.60;2.17;;;58.90;34.00;;;;;;5003777;28;20036;-91
2022/08/12 15:43:09;;;;;;;7.35;2.03;;;57.60;33.90;;;;;;5005755;28;20026;-91
2022/08/12 15:45:42;;;;;;;3.63;1.67;;;56.60;33.60;;;;;;5000332;28;20022;-92
2022/08/12 15:48:09;;;;;;;5.60;1.73;;;55.00;33.70;;;;;;4992687;28;20609;-90
2022/08/12 15:50:35;;;;;;;3.67;1.70;;;54.30;34.70;;;;;;5011958;28;20536;-91
2022/08/12 15:53:03;;;;;;;3.88;1.75;;;54.70;34.60;;;;;;5022162;28;20025;-92
2022/08/12 15:55:29;;;;;;;5.40;1.70;;;55.20;34.00;;;;;;5004820;28;20017;-91
2022/08/12 15:57:56;;;;;;;4.55;1.70;;;54.80;34.40;;;;;;5014825;28;20490;-91
2022/08/12 16:00:26;;;;;;;5.63;1.77;;;54.90;34.30;;;;;;5016035;28;20030;-92
2022/08/12 16:02:57;;;;;;;4.03;1.67;;;54.40;34.90;;;;;;4991637;28;20022;-91
2022/08/12 16:05:24;;;;;;;7.75;1.73;;;54.00;36.10;;;;;;4993197;28;20025;-93
2022/08/12 16:07:50;;;;;;;3.95;1.50;;;54.40;37.00;;;;;;5013274;28;20538;-91
2022/08/12 16:10:20;;;;;;;4.70;1.50;;;54.80;36.50;;;;;;5013985;28;20025;-91
2022/08/12 16:12:56;;;;;;;7.82;1.67;;;54.60;36.90;;;;;;5015071;28;20089;-93
2022/08/12 16:16:02;;;;;;;10.05;1.60;;;53.80;37.20;;;;;;5016769;28;20507;-94
2022/08/12 17:35:57;;;;;;;5.20;1.58;;;44.30;40.00;;;;;;5775519;23;20625;-95
2022/08/12 17:38:23;;;;;;;3.75;1.45;;;44.40;40.20;;;;;;4950969;28;20051;-90
2022/08/12 17:40:55;;;;;;;8.02;1.73;;;45.20;39.90;;;;;;4951310;28;20023;-92